createdAt,value
2019-01-24T00:00:00.832Z,92971.92
2019-01-24T00:02:27.471Z,92971.30
2019-01-24T00:04:54.128Z,92955.20
2019-01-24T00:07:20.767Z,92948.54
2019-01-24T00:09:47.420Z,92951.13
2019-01-24T00:12:14.060Z,92954.33
2019-01-24T00:14:42.062Z,92958.87
2019-01-24T00:17:07.364Z,92954.19
2019-01-24T00:19:34.033Z,92938.66
2019-01-24T00:22:00.674Z,92946.63
2019-01-24T00:24:30.528Z,92935.51
2019-01-24T00:26:57.186Z,92923.88
2019-01-24T00:29:23.825Z,92914.96
2019-01-24T00:31:50.469Z,92907.84
2019-01-24T00:34:23.051Z,92903.75
2019-01-24T00:36:43.813Z,92895.61
2019-01-24T00:39:10.465Z,92906.61
2019-01-24T00:41:37.116Z,92921.83
2019-01-24T00:44:03.763Z,92931.05
2019-01-24T00:46:30.409Z,92913.77
2019-01-24T00:48:57.056Z,92900.97
2019-01-24T00:51:23.705Z,92896.00
2019-01-24T00:53:50.340Z,92901.05
2019-01-24T00:56:16.980Z,92896.42
2019-01-24T00:58:43.639Z,92907.92
2019-01-24T01:01:10.288Z,92907.98
2019-01-24T01:03:36.943Z,92908.06
2019-01-24T01:06:03.577Z,92901.19
2019-01-24T01:08:30.282Z,92896.80
2019-01-24T01:10:56.926Z,92899.13
2019-01-24T01:13:23.690Z,92895.86
2019-01-24T01:15:50.339Z,92891.44
2019-01-24T01:18:16.978Z,92882.52
2019-01-24T01:20:43.667Z,92885.50
2019-01-24T01:23:10.306Z,92887.65
2019-01-24T01:25:36.985Z,92880.09
2019-01-24T01:28:03.641Z,92871.53
2019-01-24T01:30:30.297Z,92872.94
2019-01-24T01:32:56.935Z,92862.97
2019-01-24T01:35:23.682Z,92852.22
2019-01-24T01:37:50.325Z,92855.88
2019-01-24T01:40:16.966Z,92852.51
2019-01-24T01:42:43.645Z,92846.30
2019-01-24T01:45:10.294Z,92845.33
2019-01-24T01:47:36.927Z,92858.42
2019-01-24T01:50:03.689Z,92858.94
2019-01-24T01:52:30.332Z,92857.64
2019-01-24T01:54:56.984Z,92850.60
2019-01-24T01:57:23.627Z,92853.30
2019-01-24T01:59:50.271Z,92866.78
2019-01-24T02:02:16.909Z,92857.19
2019-01-24T02:04:43.597Z,92859.23
2019-01-24T02:07:10.234Z,92869.62
2019-01-24T02:09:36.890Z,92864.73
2019-01-24T02:12:03.543Z,92870.29
2019-01-24T02:14:30.233Z,92862.98
2019-01-24T02:16:56.887Z,92872.34
2019-01-24T02:19:23.569Z,92863.86
2019-01-24T02:21:50.226Z,92852.86
2019-01-24T02:24:16.876Z,92852.13
2019-01-24T02:26:43.660Z,92862.60
2019-01-24T02:29:10.314Z,92861.23
2019-01-24T02:31:36.963Z,92858.30
2019-01-24T02:34:03.607Z,92855.52
2019-01-24T02:36:31.443Z,92856.17
2019-01-24T02:38:56.883Z,92865.02
2019-01-24T02:41:23.516Z,92865.69
2019-01-24T02:43:50.161Z,92863.83
2019-01-24T02:46:16.798Z,92873.11
2019-01-24T02:48:43.454Z,92870.54
2019-01-24T02:51:10.090Z,92868.20
2019-01-24T02:53:36.733Z,92866.62
2019-01-24T02:56:03.388Z,92865.83
2019-01-24T02:58:30.113Z,92866.70
2019-01-24T03:00:56.772Z,92867.34
2019-01-24T03:03:23.416Z,92869.98
2019-01-24T03:05:50.066Z,92864.42
2019-01-24T03:08:16.746Z,92862.16
2019-01-24T03:10:43.362Z,92861.19
2019-01-24T03:13:09.999Z,92848.25
2019-01-24T03:15:36.654Z,92841.66
2019-01-24T03:18:03.293Z,92841.13
2019-01-24T03:20:29.973Z,92833.69
2019-01-24T03:22:56.613Z,92827.45
2019-01-24T03:25:23.248Z,92828.84
2019-01-24T03:27:49.906Z,92826.14
2019-01-24T03:30:16.554Z,92828.63
2019-01-24T03:32:43.193Z,92831.19
2019-01-24T03:35:09.833Z,92824.45
2019-01-24T03:37:36.525Z,92822.70
2019-01-24T03:40:03.168Z,92822.19
2019-01-24T03:42:29.817Z,92819.70
2019-01-24T03:44:56.467Z,92817.59
2019-01-24T03:47:23.108Z,92811.08
2019-01-24T03:49:49.753Z,92816.57
2019-01-24T03:52:16.395Z,92809.03
2019-01-24T03:54:43.047Z,92799.20
2019-01-24T03:57:09.691Z,92799.22
2019-01-24T03:59:36.375Z,92801.20
2019-01-24T04:02:03.021Z,92798.25
2019-01-24T04:04:29.656Z,92798.18
2019-01-24T04:06:56.328Z,92799.89
2019-01-24T04:09:22.988Z,92805.73
2019-01-24T04:11:49.635Z,92807.85
2019-01-24T04:14:16.292Z,92807.68
2019-01-24T04:16:42.942Z,92818.30
2019-01-24T04:19:09.580Z,92816.51
2019-01-24T04:21:36.217Z,92812.36
2019-01-24T04:24:02.876Z,92822.38
2019-01-24T04:26:29.521Z,92817.59
2019-01-24T04:28:56.186Z,92818.69
2019-01-24T04:31:22.826Z,92812.22
2019-01-24T04:33:49.513Z,92813.32
2019-01-24T04:36:16.148Z,92818.09
2019-01-24T04:38:42.884Z,92813.30
2019-01-24T04:41:09.521Z,92823.67
2019-01-24T04:43:36.160Z,92817.85
2019-01-24T04:46:02.854Z,92817.65
2019-01-24T04:48:29.527Z,92820.67
2019-01-24T04:50:56.164Z,92820.33
2019-01-24T04:53:22.852Z,92820.91
2019-01-24T04:55:49.485Z,92833.70
2019-01-24T04:58:16.125Z,92837.47
2019-01-24T05:00:42.786Z,92837.75
2019-01-24T05:03:09.428Z,92841.66
2019-01-24T05:05:36.078Z,92845.19
2019-01-24T05:08:02.770Z,92841.59
2019-01-24T05:10:29.409Z,92847.22
2019-01-24T05:12:56.054Z,92846.30
2019-01-24T05:15:22.693Z,92847.97
2019-01-24T05:17:49.334Z,92845.98
2019-01-24T05:20:15.994Z,92849.81
2019-01-24T05:22:42.646Z,92850.97
2019-01-24T05:25:09.284Z,92848.12
2019-01-24T05:27:35.933Z,92854.86
2019-01-24T05:30:02.585Z,92845.63
2019-01-24T05:32:29.225Z,92849.44
2019-01-24T05:34:55.868Z,92854.64
2019-01-24T05:37:22.514Z,92855.64
2019-01-24T05:39:49.164Z,92852.86
2019-01-24T05:42:15.814Z,92853.60
2019-01-24T05:44:42.467Z,92855.05
2019-01-24T05:47:09.121Z,92856.47
2019-01-24T05:49:35.783Z,92857.83
2019-01-24T05:52:02.423Z,92861.23
2019-01-24T05:54:29.079Z,92858.66
2019-01-24T05:56:55.765Z,92860.99
2019-01-24T05:59:22.425Z,92855.88
2019-01-24T06:01:49.123Z,92854.94
2019-01-24T06:04:15.764Z,92858.52
2019-01-24T06:06:42.409Z,92854.99
2019-01-24T06:09:09.113Z,92861.52
2019-01-24T06:11:35.759Z,92861.23
2019-01-24T06:14:02.465Z,92857.76
2019-01-24T06:16:29.116Z,92850.64
2019-01-24T06:18:55.770Z,92850.80
2019-01-24T06:21:22.425Z,92860.23
2019-01-24T06:23:49.083Z,92870.42
2019-01-24T06:26:15.779Z,92868.73
2019-01-24T06:28:42.419Z,92868.23
2019-01-24T06:31:09.066Z,92872.26
2019-01-24T06:33:35.768Z,92879.80
2019-01-24T06:36:02.404Z,92883.45
2019-01-24T06:38:29.054Z,92883.75
2019-01-24T06:40:55.827Z,92876.22
2019-01-24T06:43:22.491Z,92880.67
2019-01-24T06:45:49.141Z,92887.63
2019-01-24T06:48:15.828Z,92888.44
2019-01-24T06:50:42.500Z,92891.88
2019-01-24T06:53:09.141Z,92900.52
2019-01-24T06:55:35.840Z,92911.44
2019-01-24T06:58:02.631Z,92908.42
2019-01-24T07:00:29.272Z,92908.08
2019-01-24T07:02:55.916Z,92904.84
2019-01-24T07:05:22.566Z,92915.53
2019-01-24T07:07:49.210Z,92920.95
2019-01-24T07:10:15.858Z,92915.67
2019-01-24T07:12:42.558Z,92916.11
2019-01-24T07:15:09.220Z,92917.29
2019-01-24T07:17:36.239Z,92910.55
2019-01-24T07:20:02.869Z,92914.52
2019-01-24T07:22:29.527Z,92920.73
2019-01-24T07:24:56.182Z,92915.92
2019-01-24T07:27:23.085Z,92914.80
2019-01-24T07:29:50.942Z,92916.06
2019-01-24T07:32:17.833Z,92915.83
2019-01-24T07:34:44.748Z,92910.90
2019-01-24T07:37:11.382Z,92909.39
2019-01-24T07:39:38.342Z,92911.86
2019-01-24T07:42:05.178Z,92918.83
2019-01-24T07:44:32.041Z,92917.14
2019-01-24T07:47:01.956Z,92916.78
2019-01-24T07:49:28.736Z,92912.31
2019-01-24T07:51:55.954Z,92918.47
2019-01-24T07:54:22.675Z,92923.17
2019-01-24T07:56:51.482Z,92931.69
2019-01-24T07:59:18.244Z,92928.72
2019-01-24T08:01:44.923Z,92920.89
2019-01-24T08:04:11.614Z,92927.69
2019-01-24T08:06:38.372Z,92920.73
2019-01-24T08:09:05.032Z,92934.14
2019-01-24T08:11:31.683Z,92937.22
2019-01-24T08:13:58.383Z,92945.00
2019-01-24T08:16:25.029Z,92936.85
2019-01-24T08:18:51.683Z,92924.62
2019-01-24T08:21:18.336Z,92938.56
2019-01-24T08:23:44.990Z,92930.05
2019-01-24T08:26:11.839Z,92934.56
2019-01-24T08:28:38.468Z,92935.80
2019-01-24T08:31:05.133Z,92946.02
2019-01-24T08:33:31.774Z,92952.46
2019-01-24T08:35:58.472Z,92955.48
2019-01-24T08:38:25.290Z,92950.28
2019-01-24T08:40:51.909Z,92952.63
2019-01-24T08:43:18.588Z,92959.02
2019-01-24T08:45:45.346Z,92966.25
2019-01-24T08:48:12.083Z,92975.47
2019-01-24T08:50:38.864Z,92979.06
2019-01-24T08:53:05.647Z,92968.69
2019-01-24T08:55:32.495Z,92983.49
2019-01-24T08:57:59.279Z,92988.75
2019-01-24T09:00:26.041Z,92989.09
2019-01-24T09:02:52.704Z,92995.94
2019-01-24T09:05:19.570Z,92996.91
2019-01-24T09:07:46.287Z,92995.28
2019-01-24T09:10:13.127Z,93000.92
2019-01-24T09:12:39.968Z,93002.47
2019-01-24T09:15:06.774Z,93003.28
2019-01-24T09:17:33.575Z,92996.09
2019-01-24T09:20:00.414Z,92994.27
2019-01-24T09:22:27.108Z,93001.08
2019-01-24T09:24:53.798Z,93002.23
2019-01-24T09:27:20.464Z,92997.75
2019-01-24T09:29:47.154Z,93001.64
2019-01-24T09:32:13.801Z,92998.80
2019-01-24T09:34:40.471Z,92999.44
2019-01-24T09:37:07.135Z,92992.25
2019-01-24T09:39:33.852Z,93002.63
2019-01-24T09:42:00.487Z,93011.28
2019-01-24T09:44:27.167Z,93011.28
2019-01-24T09:46:53.858Z,93011.06
2019-01-24T09:49:20.502Z,92998.00
2019-01-24T09:51:47.159Z,92995.16
2019-01-24T09:54:13.812Z,92994.48
2019-01-24T09:56:40.454Z,92985.73
2019-01-24T09:59:07.116Z,92983.97
2019-01-24T10:01:33.765Z,92981.89
2019-01-24T10:04:00.553Z,92982.70
2019-01-24T10:06:27.454Z,92985.23
2019-01-24T10:08:54.302Z,92987.15
2019-01-24T10:11:23.620Z,92983.70
2019-01-24T10:13:47.995Z,92977.69
2019-01-24T10:16:14.809Z,92986.98
2019-01-24T10:18:41.511Z,92980.47
2019-01-24T10:21:08.147Z,92971.14
2019-01-24T10:23:34.886Z,92965.23
2019-01-24T10:26:01.536Z,92966.80
2019-01-24T10:28:28.399Z,92966.30
2019-01-24T10:30:55.062Z,92959.33
2019-01-24T10:33:21.709Z,92959.17
2019-01-24T10:35:48.348Z,92955.56
2019-01-24T10:38:15.119Z,92957.25
2019-01-24T10:40:41.782Z,92948.84
2019-01-24T10:43:08.504Z,92950.07
2019-01-24T10:45:35.161Z,92953.23
2019-01-24T10:48:01.812Z,92958.12
2019-01-24T10:50:28.652Z,92956.09
2019-01-24T10:52:55.318Z,92963.11
2019-01-24T10:55:21.972Z,92960.44
2019-01-24T10:57:48.633Z,92956.30
2019-01-24T11:00:15.387Z,92940.80
2019-01-24T11:02:42.067Z,92939.82
2019-01-24T11:05:08.761Z,92943.39
2019-01-24T11:07:35.453Z,92942.78
2019-01-24T11:10:02.098Z,92955.98
2019-01-24T11:12:29.251Z,92962.05
2019-01-24T11:14:56.173Z,92961.34
2019-01-24T11:17:23.025Z,92960.45
2019-01-24T11:19:49.887Z,92962.70
2019-01-24T11:22:16.670Z,92969.84
2019-01-24T11:24:43.398Z,92972.79
2019-01-24T11:27:10.057Z,92968.27
2019-01-24T11:29:36.712Z,92974.01
2019-01-24T11:32:03.553Z,92974.50
2019-01-24T11:34:30.173Z,92980.62
2019-01-24T11:36:58.162Z,92977.91
2019-01-24T11:39:23.534Z,92987.38
2019-01-24T11:41:50.279Z,92986.36
2019-01-24T11:44:17.145Z,92995.58
2019-01-24T11:46:43.858Z,92979.38
2019-01-24T11:49:10.749Z,92995.38
2019-01-24T11:51:37.756Z,92990.83
2019-01-24T11:54:04.368Z,92990.66
2019-01-24T11:56:31.127Z,92998.66
2019-01-24T11:58:58.260Z,92999.93
2019-01-24T12:01:24.950Z,93006.04
2019-01-24T12:03:52.772Z,93007.69
2019-01-24T12:06:23.376Z,93011.37
2019-01-24T12:08:49.740Z,93007.27
2019-01-24T12:11:16.391Z,93009.36
2019-01-24T12:13:43.107Z,93010.92
2019-01-24T12:16:09.959Z,93006.63
2019-01-24T12:18:36.615Z,93008.62
2019-01-24T12:21:03.270Z,93001.70
2019-01-24T12:23:29.936Z,93007.15
2019-01-24T12:25:56.578Z,93014.94
2019-01-24T12:28:23.354Z,93016.91
2019-01-24T12:30:50.057Z,93010.11
2019-01-24T12:33:16.821Z,93016.04
2019-01-24T12:35:43.505Z,93012.97
2019-01-24T12:38:10.173Z,93026.67
2019-01-24T12:40:36.887Z,93023.52
2019-01-24T12:43:03.568Z,93032.09
2019-01-24T12:45:30.733Z,93031.84
2019-01-24T12:47:57.394Z,93029.20
2019-01-24T12:50:24.065Z,93027.45
2019-01-24T12:52:53.591Z,93025.67
2019-01-24T12:55:20.251Z,93029.64
2019-01-24T12:57:46.938Z,93032.88
2019-01-24T13:00:13.618Z,93023.69
2019-01-24T13:02:40.314Z,93034.66
2019-01-24T13:05:06.986Z,93025.17
2019-01-24T13:07:33.658Z,93025.11
2019-01-24T13:10:00.350Z,93027.63
2019-01-24T13:12:27.014Z,93035.84
2019-01-24T13:14:53.719Z,93041.13
2019-01-24T13:19:46.795Z,93051.81
2019-01-24T13:22:13.842Z,93061.73
2019-01-24T13:24:40.269Z,93060.68
2019-01-24T13:27:07.061Z,93067.42
2019-01-24T13:29:33.753Z,93085.55
2019-01-24T13:32:00.514Z,93089.77
2019-01-24T13:34:27.188Z,93092.02
2019-01-24T13:36:53.909Z,93095.69
2019-01-24T13:39:20.667Z,93101.02
2019-01-24T13:41:47.306Z,93103.44
2019-01-24T13:44:14.037Z,93075.64
2019-01-24T13:46:40.767Z,93116.19
2019-01-24T13:49:07.494Z,93121.80
2019-01-24T13:51:34.162Z,93119.69
2019-01-24T13:54:00.952Z,93125.63
2019-01-24T13:56:27.606Z,93122.39
2019-01-24T13:58:54.775Z,93127.30
2019-01-24T14:01:21.461Z,93136.65
2019-01-24T14:03:48.163Z,93140.14
2019-01-24T14:06:14.880Z,93137.39
2019-01-24T14:08:41.623Z,93145.82
2019-01-24T14:11:08.408Z,93126.34
2019-01-24T14:13:35.087Z,93144.87
2019-01-24T14:16:01.738Z,93145.73
2019-01-24T14:18:28.380Z,93145.64
2019-01-24T14:20:55.075Z,93153.59
2019-01-24T14:23:21.870Z,93155.93
2019-01-24T14:25:48.521Z,93160.16
2019-01-24T14:28:15.235Z,93159.81
2019-01-24T14:30:41.978Z,93169.63
2019-01-24T14:33:08.634Z,93171.13
2019-01-24T14:35:35.298Z,93177.19
2019-01-24T14:38:01.989Z,93183.55
2019-01-24T14:40:28.633Z,93173.03
2019-01-24T14:42:55.342Z,93174.75
2019-01-24T14:45:22.109Z,93175.85
2019-01-24T14:47:48.827Z,93184.92
2019-01-24T14:50:15.487Z,93190.71
2019-01-24T14:52:42.207Z,93196.25
2019-01-24T14:55:08.842Z,93198.97
2019-01-24T14:57:35.488Z,93191.62
2019-01-24T15:00:02.162Z,93196.20
2019-01-24T15:02:31.486Z,93195.42
2019-01-24T15:04:58.771Z,93209.75
2019-01-24T15:07:25.472Z,93211.94
2019-01-24T15:09:52.122Z,93215.16
2019-01-24T15:12:18.773Z,93218.91
2019-01-24T15:14:45.502Z,93217.45
2019-01-24T15:17:12.152Z,93219.90
2019-01-24T15:19:38.860Z,93222.27
2019-01-24T15:22:05.515Z,93223.52
2019-01-24T15:24:32.179Z,93228.94
2019-01-24T15:26:58.869Z,93232.61
2019-01-24T15:29:25.516Z,93239.28
2019-01-24T15:31:52.223Z,93243.06
2019-01-24T15:34:18.978Z,93247.61
2019-01-24T15:36:45.612Z,93265.72
2019-01-24T15:39:12.270Z,93267.42
2019-01-24T15:41:38.912Z,93269.41
2019-01-24T15:44:05.574Z,93268.96
2019-01-24T15:46:32.366Z,93277.09
2019-01-24T15:48:59.111Z,93280.23
2019-01-24T15:51:25.862Z,93285.67
2019-01-24T15:53:52.524Z,93293.80
2019-01-24T15:56:19.215Z,93293.95
2019-01-24T15:58:45.900Z,93302.43
2019-01-24T16:01:12.593Z,93288.13
2019-01-24T16:03:39.359Z,93305.21
2019-01-24T16:06:06.053Z,93314.33
2019-01-24T16:08:32.701Z,93311.11
2019-01-24T16:10:59.384Z,93314.08
2019-01-24T16:13:26.044Z,93315.44
2019-01-24T16:15:52.817Z,93323.97
2019-01-24T16:18:19.458Z,93327.36
2019-01-24T16:20:46.108Z,93330.70
2019-01-24T16:23:12.752Z,93343.78
2019-01-24T16:25:39.416Z,93338.03
2019-01-24T16:28:06.072Z,93354.33
2019-01-24T16:30:32.742Z,93341.56
2019-01-24T16:32:59.391Z,93358.47
2019-01-24T16:35:26.045Z,93360.63
2019-01-24T16:37:52.686Z,93367.05
2019-01-24T16:40:19.420Z,93371.08
2019-01-24T16:42:46.060Z,93375.39
2019-01-24T16:45:12.798Z,93381.75
2019-01-24T16:47:39.474Z,93384.52
2019-01-24T16:50:06.118Z,93383.70
2019-01-24T16:52:32.770Z,93390.52
2019-01-24T16:57:28.476Z,93391.44
2019-01-24T16:59:55.131Z,93387.22
2019-01-24T17:02:21.780Z,93393.00
2019-01-24T17:04:48.438Z,93391.89
2019-01-24T17:07:15.098Z,93398.20
2019-01-24T17:09:41.769Z,93409.98
2019-01-24T17:12:08.420Z,93398.80
2019-01-24T17:14:35.070Z,93409.84
2019-01-24T17:17:01.733Z,93427.56
2019-01-24T17:19:28.389Z,93423.42
2019-01-24T17:21:55.061Z,93426.48
2019-01-24T17:24:21.703Z,93423.78
2019-01-24T17:26:48.401Z,93418.95
2019-01-24T17:29:15.075Z,93421.73
2019-01-24T17:31:41.713Z,93422.97
2019-01-24T17:34:08.364Z,93416.73
2019-01-24T17:36:35.019Z,93412.69
2019-01-24T17:39:01.674Z,93425.02
2019-01-24T17:41:28.320Z,93431.27
2019-01-24T17:43:54.957Z,93430.25
2019-01-24T17:46:21.611Z,93436.46
2019-01-24T17:48:48.292Z,93445.09
2019-01-24T17:51:15.706Z,93445.59
2019-01-24T17:53:41.609Z,93452.91
2019-01-24T17:56:08.297Z,93454.31
2019-01-24T17:58:34.945Z,93455.80
2019-01-24T18:01:01.590Z,93467.33
2019-01-24T18:03:28.313Z,93473.41
2019-01-24T18:05:55.025Z,93469.00
2019-01-24T18:08:21.664Z,93476.97
2019-01-24T18:10:48.356Z,93479.88
2019-01-24T18:13:15.015Z,93478.45
2019-01-24T18:15:41.668Z,93481.73
2019-01-24T18:18:08.320Z,93487.64
2019-01-24T18:20:34.981Z,93495.09
2019-01-24T18:23:01.626Z,93492.95
2019-01-24T18:25:28.273Z,93494.44
2019-01-24T18:27:55.161Z,93500.00
2019-01-24T18:30:21.803Z,93503.30
2019-01-24T18:32:48.446Z,93503.99
2019-01-24T18:35:15.111Z,93499.45
2019-01-24T18:37:41.806Z,93507.64
2019-01-24T18:40:08.453Z,93515.73
2019-01-24T18:42:35.087Z,93516.66
2019-01-24T18:45:01.730Z,93519.98
2019-01-24T18:47:28.448Z,93524.00
2019-01-24T18:49:55.094Z,93526.45
2019-01-24T18:52:21.739Z,93522.31
2019-01-24T18:54:48.389Z,93527.15
2019-01-24T18:57:15.065Z,93525.44
2019-01-24T18:59:41.709Z,93517.48
2019-01-24T19:02:08.489Z,93514.92
2019-01-24T19:04:35.133Z,93519.31
2019-01-24T19:07:01.781Z,93524.36
2019-01-24T19:09:28.417Z,93520.62
2019-01-24T19:11:55.113Z,93522.66
2019-01-24T19:14:21.764Z,93521.61
2019-01-24T19:16:48.509Z,93537.61
2019-01-24T19:19:15.173Z,93534.91
2019-01-24T19:21:43.109Z,93524.67
2019-01-24T19:24:08.476Z,93531.01
2019-01-24T19:26:35.125Z,93529.83
2019-01-24T19:29:01.803Z,93528.25
2019-01-24T19:31:28.423Z,93527.00
2019-01-24T19:33:55.079Z,93525.77
2019-01-24T19:36:21.730Z,93528.83
2019-01-24T19:38:53.024Z,93527.77
2019-01-24T19:41:15.017Z,93537.30
2019-01-24T19:43:41.664Z,93544.44
2019-01-24T19:46:08.349Z,93549.56
2019-01-24T19:48:35.001Z,93552.50
2019-01-24T19:51:01.648Z,93547.64
2019-01-24T19:53:28.334Z,93538.37
2019-01-24T19:55:54.991Z,93544.86
2019-01-24T19:58:21.656Z,93557.47
2019-01-24T20:00:48.305Z,93554.89
2019-01-24T20:03:14.988Z,93557.47
2019-01-24T20:05:41.633Z,93554.73
2019-01-24T20:08:08.272Z,93558.06
2019-01-24T20:10:34.916Z,93551.58
2019-01-24T20:13:01.565Z,93558.59
2019-01-24T20:15:28.220Z,93569.17
2019-01-24T20:17:54.855Z,93571.66
2019-01-24T20:20:21.563Z,93576.01
2019-01-24T20:22:48.213Z,93583.88
2019-01-24T20:25:14.974Z,93572.66
2019-01-24T20:27:41.641Z,93582.84
2019-01-24T20:30:08.304Z,93586.81
2019-01-24T20:32:34.941Z,93585.81
2019-01-24T20:35:01.583Z,93587.73
2019-01-24T20:37:28.220Z,93596.53
2019-01-24T20:39:54.861Z,93596.62
2019-01-24T20:42:21.520Z,93594.77
2019-01-24T20:44:48.158Z,93601.38
2019-01-24T20:47:14.825Z,93606.27
2019-01-24T20:49:41.475Z,93607.41
2019-01-24T20:52:08.120Z,93616.28
2019-01-24T20:54:34.782Z,93624.09
2019-01-24T20:57:01.439Z,93619.92
2019-01-24T20:59:28.138Z,93627.89
2019-01-24T21:01:56.151Z,93631.05
2019-01-24T21:04:21.495Z,93640.39
2019-01-24T21:06:48.166Z,93647.34
2019-01-24T21:09:15.097Z,93647.90
2019-01-24T21:11:42.770Z,93648.17
2019-01-24T21:14:08.103Z,93648.73
2019-01-24T21:16:34.751Z,93655.23
2019-01-24T21:19:01.448Z,93649.84
2019-01-24T21:21:28.088Z,93645.39
2019-01-24T21:23:54.741Z,93652.19
2019-01-24T21:26:21.395Z,93660.06
2019-01-24T21:28:48.096Z,93672.31
2019-01-24T21:31:14.740Z,93672.95
2019-01-24T21:33:41.392Z,93673.48
2019-01-24T21:36:08.033Z,93674.89
2019-01-24T21:38:34.684Z,93679.36
2019-01-24T21:41:01.380Z,93683.16
2019-01-24T21:43:28.070Z,93685.94
2019-01-24T21:45:54.709Z,93691.69
2019-01-24T21:48:21.363Z,93702.26
2019-01-24T21:50:48.012Z,93705.04
2019-01-24T21:53:14.661Z,93700.30
2019-01-24T21:55:41.317Z,93707.61
2019-01-24T21:58:07.956Z,93711.52
2019-01-24T22:00:34.673Z,93715.16
2019-01-24T22:03:01.314Z,93722.47
2019-01-24T22:05:27.973Z,93722.47
2019-01-24T22:07:54.613Z,93710.41
2019-01-24T22:10:21.291Z,93702.00
2019-01-24T22:12:47.955Z,93695.69
2019-01-24T22:15:14.639Z,93706.80
2019-01-24T22:17:41.282Z,93707.26
2019-01-24T22:20:07.929Z,93707.19
2019-01-24T22:22:34.578Z,93703.02
2019-01-24T22:25:01.246Z,93694.73
2019-01-24T22:27:27.890Z,93696.05
2019-01-24T22:29:54.599Z,93702.44
2019-01-24T22:32:21.301Z,93695.50
2019-01-24T22:34:47.949Z,93689.17
2019-01-24T22:37:14.602Z,93684.56
2019-01-24T22:39:41.268Z,93683.34
2019-01-24T22:42:07.920Z,93683.36
2019-01-24T22:44:34.574Z,93664.53
2019-01-24T22:47:01.222Z,93665.09
2019-01-24T22:49:27.860Z,93672.11
2019-01-24T22:51:54.506Z,93666.86
2019-01-24T22:54:21.147Z,93664.63
2019-01-24T22:56:47.810Z,93672.86
2019-01-24T22:59:14.454Z,93675.09
2019-01-24T23:01:41.108Z,93673.62
2019-01-24T23:04:07.775Z,93673.83
2019-01-24T23:06:34.427Z,93680.30
2019-01-24T23:09:01.142Z,93690.68
2019-01-24T23:11:27.829Z,93690.41
2019-01-24T23:13:54.517Z,93698.58
2019-01-24T23:16:21.173Z,93686.78
2019-01-24T23:18:47.857Z,93665.55
2019-01-24T23:21:14.519Z,93680.20
2019-01-24T23:23:41.201Z,93702.72
2019-01-24T23:26:07.858Z,93700.63
2019-01-24T23:28:34.501Z,93717.86
2019-01-24T23:31:01.206Z,93736.41
2019-01-24T23:33:27.826Z,93713.78
2019-01-24T23:35:54.504Z,93712.57
2019-01-24T23:38:21.153Z,93698.00
2019-01-24T23:40:47.802Z,93695.98
2019-01-24T23:43:14.488Z,93688.93
2019-01-24T23:45:41.137Z,93707.96
2019-01-24T23:48:07.796Z,93737.52
2019-01-24T23:50:34.439Z,93736.77
2019-01-24T23:53:01.086Z,93732.41
2019-01-24T23:55:27.772Z,93743.64
2019-01-24T23:57:54.420Z,93733.44
